sensor_id;sensor_type;location;lat;lon;timestamp;pressure;altitude;pressure_sealevel;temperature;humidity
53270;BME280;39159;45.634;9.420;2023-07-24T00:00:43;98681.09;;;23.46;100.00
53270;BME280;39159;45.634;9.420;2023-07-24T00:03:09;98669.53;;;23.40;100.00
53270;BME280;39159;45.634;9.420;2023-07-24T00:05:34;98685.47;;;23.32;100.00
53270;BME280;39159;45.634;9.420;2023-07-24T00:08:00;98679.13;;;23.28;100.00
53270;BME280;39159;45.634;9.420;2023-07-24T00:10:25;98673.53;;;23.25;100.00
53270;BME280;39159;45.634;9.420;2023-07-24T00:12:51;98681.13;;;23.28;100.00
53270;BME280;39159;45.634;9.420;2023-07-24T00:15:16;98685.06;;;23.27;100.00
53270;BME280;39159;45.634;9.420;2023-07-24T00:17:42;98683.50;;;23.26;100.00
53270;BME280;39159;45.634;9.420;2023-07-24T00:20:07;98684.28;;;23.26;100.00
53270;BME280;39159;45.634;9.420;2023-07-24T00:22:33;98683.09;;;23.24;100.00
53270;BME280;39159;45.634;9.420;2023-07-24T00:24:59;98678.72;;;23.26;100.00
53270;BME280;39159;45.634;9.420;2023-07-24T00:27:24;98676.34;;;23.28;100.00
53270;BME280;39159;45.634;9.420;2023-07-24T00:29:50;98674.34;;;23.25;100.00
53270;BME280;39159;45.634;9.420;2023-07-24T00:32:15;98678.72;;;23.23;100.00
53270;BME280;39159;45.634;9.420;2023-07-24T00:34:41;98664.00;;;23.22;100.00
53270;BME280;39159;45.634;9.420;2023-07-24T00:37:06;98661.22;;;23.22;100.00
53270;BME280;39159;45.634;9.420;2023-07-24T00:39:32;98667.59;;;23.23;100.00
53270;BME280;39159;45.634;9.420;2023-07-24T00:41:57;98666.78;;;23.22;100.00
53270;BME280;39159;45.634;9.420;2023-07-24T00:44:23;98653.69;;;23.15;100.00
53270;BME280;39159;45.634;9.420;2023-07-24T00:46:49;98664.81;;;23.12;100.00
53270;BME280;39159;45.634;9.420;2023-07-24T00:49:15;98658.84;;;23.10;100.00
53270;BME280;39159;45.634;9.420;2023-07-24T00:51:41;98649.31;;;23.11;100.00
53270;BME280;39159;45.634;9.420;2023-07-24T00:54:07;98644.16;;;23.06;100.00
53270;BME280;39159;45.634;9.420;2023-07-24T00:56:32;98647.31;;;23.01;100.00
53270;BME280;39159;45.634;9.420;2023-07-24T00:58:59;98649.28;;;22.93;100.00
53270;BME280;39159;45.634;9.420;2023-07-24T01:01:26;98648.91;;;22.94;100.00
53270;BME280;39159;45.634;9.420;2023-07-24T01:03:52;98643.31;;;22.87;100.00
53270;BME280;39159;45.634;9.420;2023-07-24T01:06:18;98640.16;;;22.89;100.00
53270;BME280;39159;45.634;9.420;2023-07-24T01:08:43;98645.31;;;22.87;100.00
53270;BME280;39159;45.634;9.420;2023-07-24T01:11:15;98651.66;;;22.87;100.00
53270;BME280;39159;45.634;9.420;2023-07-24T01:13:47;98640.97;;;22.86;100.00
53270;BME280;39159;45.634;9.420;2023-07-24T01:16:18;98640.53;;;22.87;100.00
53270;BME280;39159;45.634;9.420;2023-07-24T01:18:44;98645.31;;;22.87;100.00
53270;BME280;39159;45.634;9.420;2023-07-24T01:21:11;98646.94;;;22.88;100.00
53270;BME280;39159;45.634;9.420;2023-07-24T01:24:00;98648.13;;;22.90;100.00
53270;BME280;39159;45.634;9.420;2023-07-24T01:26:28;98642.53;;;22.90;100.00
53270;BME280;39159;45.634;9.420;2023-07-24T01:28:53;98648.50;;;22.92;100.00
53270;BME280;39159;45.634;9.420;2023-07-24T01:31:19;98646.91;;;22.91;100.00
53270;BME280;39159;45.634;9.420;2023-07-24T01:33:45;98652.88;;;22.93;100.00
53270;BME280;39159;45.634;9.420;2023-07-24T01:36:11;98646.13;;;22.91;100.00
53270;BME280;39159;45.634;9.420;2023-07-24T01:38:38;98634.97;;;22.87;100.00
53270;BME280;39159;45.634;9.420;2023-07-24T01:41:04;98637.38;;;22.89;100.00
53270;BME280;39159;45.634;9.420;2023-07-24T01:43:30;98633.00;;;22.88;100.00
53270;BME280;39159;45.634;9.420;2023-07-24T01:45:57;98633.41;;;22.86;100.00
53270;BME280;39159;45.634;9.420;2023-07-24T01:48:23;98630.22;;;22.84;100.00
53270;BME280;39159;45.634;9.420;2023-07-24T01:50:48;98625.84;;;22.83;100.00
53270;BME280;39159;45.634;9.420;2023-07-24T01:53:15;98623.88;;;22.84;100.00
53270;BME280;39159;45.634;9.420;2023-07-24T01:55:40;98624.28;;;22.86;100.00
53270;BME280;39159;45.634;9.420;2023-07-24T01:58:06;98618.69;;;22.82;100.00
53270;BME280;39159;45.634;9.420;2023-07-24T02:00:31;98617.88;;;22.85;100.00
53270;BME280;39159;45.634;9.420;2023-07-24T02:02:57;98607.56;;;22.86;100.00
53270;BME280;39159;45.634;9.420;2023-07-24T02:05:22;98605.19;;;22.88;100.00
53270;BME280;39159;45.634;9.420;2023-07-24T02:07:48;98600.81;;;22.90;100.00
53270;BME280;39159;45.634;9.420;2023-07-24T02:10:13;98599.22;;;22.86;100.00
53270;BME280;39159;45.634;9.420;2023-07-24T02:12:39;98612.75;;;22.84;100.00
53270;BME280;39159;45.634;9.420;2023-07-24T02:15:05;98599.22;;;22.86;100.00
53270;BME280;39159;45.634;9.420;2023-07-24T02:17:31;98593.25;;;22.80;100.00
53270;BME280;39159;45.634;9.420;2023-07-24T02:19:56;98589.28;;;22.77;100.00
53270;BME280;39159;45.634;9.420;2023-07-24T02:22:22;98577.38;;;22.73;100.00
53270;BME280;39159;45.634;9.420;2023-07-24T02:24:47;98575.41;;;22.70;100.00
53270;BME280;39159;45.634;9.420;2023-07-24T02:27:13;98570.22;;;22.65;100.00
53270;BME280;39159;45.634;9.420;2023-07-24T02:29:49;98567.84;;;22.60;100.00
53270;BME280;39159;45.634;9.420;2023-07-24T02:32:14;98564.69;;;22.54;100.00
53270;BME280;39159;45.634;9.420;2023-07-24T02:34:40;98560.28;;;22.53;100.00
53270;BME280;39159;45.634;9.420;2023-07-24T02:37:05;98566.63;;;22.54;100.00
53270;BME280;39159;45.634;9.420;2023-07-24T02:39:31;98564.25;;;22.56;100.00
53270;BME280;39159;45.634;9.420;2023-07-24T02:41:56;98563.88;;;22.58;100.00
53270;BME280;39159;45.634;9.420;2023-07-24T02:44:22;98571.41;;;22.61;100.00
53270;BME280;39159;45.634;9.420;2023-07-24T02:46:47;98561.09;;;22.58;100.00
53270;BME280;39159;45.634;9.420;2023-07-24T02:49:13;98542.41;;;22.51;100.00
53270;BME280;39159;45.634;9.420;2023-07-24T02:51:38;98541.63;;;22.50;100.00
53270;BME280;39159;45.634;9.420;2023-07-24T02:54:03;98549.97;;;22.50;100.00
53270;BME280;39159;45.634;9.420;2023-07-24T02:56:29;98561.88;;;22.44;100.00
53270;BME280;39159;45.634;9.420;2023-07-24T02:58:55;98542.81;;;22.35;100.00
53270;BME280;39159;45.634;9.420;2023-07-24T03:01:20;98546.00;;;22.33;100.00
53270;BME280;39159;45.634;9.420;2023-07-24T03:03:46;98537.25;;;22.31;100.00
53270;BME280;39159;45.634;9.420;2023-07-24T03:06:11;98553.94;;;22.28;100.00
53270;BME280;39159;45.634;9.420;2023-07-24T03:08:37;98566.25;;;22.27;100.00
53270;BME280;39159;45.634;9.420;2023-07-24T03:11:05;98585.31;;;22.28;100.00
53270;BME280;39159;45.634;9.420;2023-07-24T03:13:30;98589.66;;;22.29;100.00
53270;BME280;39159;45.634;9.420;2023-07-24T03:15:57;98591.66;;;22.29;100.00
53270;BME280;39159;45.634;9.420;2023-07-24T03:18:23;98592.47;;;22.33;100.00
53270;BME280;39159;45.634;9.420;2023-07-24T03:20:49;98580.13;;;22.34;100.00
53270;BME280;39159;45.634;9.420;2023-07-24T03:23:15;98578.56;;;22.33;100.00
53270;BME280;39159;45.634;9.420;2023-07-24T03:25:41;98574.97;;;22.29;100.00
53270;BME280;39159;45.634;9.420;2023-07-24T03:28:06;98561.06;;;22.25;100.00
53270;BME280;39159;45.634;9.420;2023-07-24T03:30:32;98557.09;;;22.23;100.00
53270;BME280;39159;45.634;9.420;2023-07-24T03:32:57;98554.72;;;22.21;100.00
53270;BME280;39159;45.634;9.420;2023-07-24T03:35:23;98547.19;;;22.22;100.00
53270;BME280;39159;45.634;9.420;2023-07-24T03:37:49;98547.19;;;22.29;100.00
53270;BME280;39159;45.634;9.420;2023-07-24T03:40:14;98546.00;;;22.37;100.00
53270;BME280;39159;45.634;9.420;2023-07-24T03:42:41;98546.00;;;22.44;100.00
53270;BME280;39159;45.634;9.420;2023-07-24T03:45:07;98537.66;;;22.48;100.00
53270;BME280;39159;45.634;9.420;2023-07-24T03:47:33;98536.47;;;22.42;100.00
53270;BME280;39159;45.634;9.420;2023-07-24T03:49:58;98528.50;;;22.37;100.00
53270;BME280;39159;45.634;9.420;2023-07-24T03:52:24;98533.69;;;22.34;100.00
53270;BME280;39159;45.634;9.420;2023-07-24T03:54:53;98538.47;;;22.30;100.00
53270;BME280;39159;45.634;9.420;2023-07-24T03:57:18;98538.84;;;22.25;100.00
53270;BME280;39159;45.634;9.420;2023-07-24T03:59:44;98552.34;;;22.23;100.00
53270;BME280;39159;45.634;9.420;2023-07-24T04:02:10;98563.47;;;22.23;100.00
53270;BME280;39159;45.634;9.420;2023-07-24T04:04:36;98551.53;;;22.23;100.00
53270;BME280;39159;45.634;9.420;2023-07-24T04:07:01;98559.50;;;22.24;100.00
53270;BME280;39159;45.634;9.420;2023-07-24T04:09:27;98567.84;;;22.24;100.00
53270;BME280;39159;45.634;9.420;2023-07-24T04:11:52;98571.03;;;22.30;100.00
53270;BME280;39159;45.634;9.420;2023-07-24T04:14:18;98574.19;;;22.32;100.00
53270;BME280;39159;45.634;9.420;2023-07-24T04:16:43;98572.19;;;22.36;100.00
53270;BME280;39159;45.634;9.420;2023-07-24T04:19:10;98576.56;;;22.33;100.00
53270;BME280;39159;45.634;9.420;2023-07-24T04:21:35;98585.69;;;22.34;100.00
53270;BME280;39159;45.634;9.420;2023-07-24T04:24:01;98583.34;;;22.40;100.00
53270;BME280;39159;45.634;9.420;2023-07-24T04:26:26;98578.56;;;22.40;100.00
53270;BME280;39159;45.634;9.420;2023-07-24T04:28:51;98596.06;;;22.48;100.00
53270;BME280;39159;45.634;9.420;2023-07-24T04:31:17;98599.22;;;22.53;100.00
53270;BME280;39159;45.634;9.420;2023-07-24T04:33:42;98590.47;;;22.51;100.00
53270;BME280;39159;45.634;9.420;2023-07-24T04:36:08;98598.41;;;22.56;100.00
53270;BME280;39159;45.634;9.420;2023-07-24T04:38:33;98597.25;;;22.58;100.00
53270;BME280;39159;45.634;9.420;2023-07-24T04:41:02;98605.59;;;22.61;100.00
53270;BME280;39159;45.634;9.420;2023-07-24T04:43:29;98627.44;;;22.63;100.00
53270;BME280;39159;45.634;9.420;2023-07-24T04:45:54;98639.34;;;22.63;100.00
53270;BME280;39159;45.634;9.420;2023-07-24T04:48:20;98662.78;;;22.59;100.00
53270;BME280;39159;45.634;9.420;2023-07-24T04:50:45;98687.03;;;22.54;100.00
53270;BME280;39159;45.634;9.420;2023-07-24T04:53:11;98721.22;;;22.62;100.00
53270;BME280;39159;45.634;9.420;2023-07-24T04:55:36;98727.19;;;22.64;100.00
53270;BME280;39159;45.634;9.420;2023-07-24T04:58:02;98684.66;;;22.71;100.00
53270;BME280;39159;45.634;9.420;2023-07-24T05:00:27;98650.09;;;22.61;100.00
53270;BME280;39159;45.634;9.420;2023-07-24T05:02:53;98606.78;;;22.60;100.00
53270;BME280;39159;45.634;9.420;2023-07-24T05:05:18;98553.53;;;22.58;100.00
53270;BME280;39159;45.634;9.420;2023-07-24T05:07:44;98527.72;;;22.58;100.00
53270;BME280;39159;45.634;9.420;2023-07-24T05:10:09;98491.16;;;22.52;100.00
53270;BME280;39159;45.634;9.420;2023-07-24T05:12:35;98436.38;;;22.38;100.00
53270;BME280;39159;45.634;9.420;2023-07-24T05:15:00;98437.56;;;22.12;100.00
53270;BME280;39159;45.634;9.420;2023-07-24T05:17:26;98429.25;;;21.90;100.00
53270;BME280;39159;45.634;9.420;2023-07-24T05:19:51;98436.78;;;21.86;100.00
53270;BME280;39159;45.634;9.420;2023-07-24T05:22:16;98419.31;;;21.82;100.00
53270;BME280;39159;45.634;9.420;2023-07-24T05:24:42;98417.75;;;21.81;100.00
53270;BME280;39159;45.634;9.420;2023-07-24T05:27:07;98419.69;;;21.81;100.00
53270;BME280;39159;45.634;9.420;2023-07-24T05:29:33;98449.47;;;21.87;100.00
53270;BME280;39159;45.634;9.420;2023-07-24T05:31:58;98472.50;;;22.02;100.00
53270;BME280;39159;45.634;9.420;2023-07-24T05:34:24;98470.53;;;22.06;100.00
53270;BME280;39159;45.634;9.420;2023-07-24T05:36:50;98474.09;;;22.14;100.00
53270;BME280;39159;45.634;9.420;2023-07-24T05:39:15;98485.22;;;22.18;100.00
53270;BME280;39159;45.634;9.420;2023-07-24T05:41:41;98469.31;;;22.18;100.00
53270;BME280;39159;45.634;9.420;2023-07-24T05:44:06;98447.53;;;22.24;100.00
53270;BME280;39159;45.634;9.420;2023-07-24T05:46:32;98427.25;;;22.41;100.00
53270;BME280;39159;45.634;9.420;2023-07-24T05:48:57;98427.63;;;22.47;100.00
53270;BME280;39159;45.634;9.420;2023-07-24T05:51:23;98429.22;;;22.48;100.00
53270;BME280;39159;45.634;9.420;2023-07-24T05:53:48;98431.56;;;22.56;100.00
53270;BME280;39159;45.634;9.420;2023-07-24T05:56:13;98439.53;;;22.54;100.00
53270;BME280;39159;45.634;9.420;2023-07-24T05:58:39;98460.53;;;22.70;100.00
53270;BME280;39159;45.634;9.420;2023-07-24T06:01:04;98462.09;;;22.78;100.00
53270;BME280;39159;45.634;9.420;2023-07-24T06:03:32;98458.47;;;22.99;100.00
53270;BME280;39159;45.634;9.420;2023-07-24T06:05:58;98467.56;;;23.14;100.00
53270;BME280;39159;45.634;9.420;2023-07-24T06:08:23;98483.44;;;23.21;100.00
53270;BME280;39159;45.634;9.420;2023-07-24T06:10:50;98492.53;;;23.35;100.00
53270;BME280;39159;45.634;9.420;2023-07-24T06:13:16;98514.38;;;23.44;100.00
53270;BME280;39159;45.634;9.420;2023-07-24T06:15:42;98524.25;;;23.59;100.00
53270;BME280;39159;45.634;9.420;2023-07-24T06:18:08;98533.75;;;23.69;100.00
53270;BME280;39159;45.634;9.420;2023-07-24T06:20:34;98569.16;;;23.72;100.00
53270;BME280;39159;45.634;9.420;2023-07-24T06:22:59;98605.78;;;23.67;100.00
53270;BME280;39159;45.634;9.420;2023-07-24T06:25:24;98624.50;;;23.63;100.00
53270;BME280;39159;45.634;9.420;2023-07-24T06:27:50;98640.47;;;23.52;100.00
53270;BME280;39159;45.634;9.420;2023-07-24T06:30:15;98659.59;;;23.43;100.00
53270;BME280;39159;45.634;9.420;2023-07-24T06:32:41;98663.97;;;23.36;100.00
53270;BME280;39159;45.634;9.420;2023-07-24T06:35:06;98658.81;;;23.35;100.00
53270;BME280;39159;45.634;9.420;2023-07-24T06:37:32;98640.91;;;23.36;100.00
53270;BME280;39159;45.634;9.420;2023-07-24T06:39:57;98574.88;;;23.36;100.00
53270;BME280;39159;45.634;9.420;2023-07-24T06:42:23;98500.16;;;23.28;100.00
53270;BME280;39159;45.634;9.420;2023-07-24T06:44:49;98478.34;;;23.08;100.00
53270;BME280;39159;45.634;9.420;2023-07-24T06:47:14;98448.56;;;22.91;100.00
53270;BME280;39159;45.634;9.420;2023-07-24T06:49:39;98438.66;;;22.79;100.00
53270;BME280;39159;45.634;9.420;2023-07-24T06:52:05;98472.81;;;22.87;100.00
53270;BME280;39159;45.634;9.420;2023-07-24T06:54:31;98487.47;;;22.98;100.00
53270;BME280;39159;45.634;9.420;2023-07-24T06:56:56;98480.69;;;23.13;100.00
53270;BME280;39159;45.634;9.420;2023-07-24T06:59:23;98473.00;;;23.43;100.00
53270;BME280;39159;45.634;9.420;2023-07-24T07:01:48;98481.16;;;23.78;100.00
53270;BME280;39159;45.634;9.420;2023-07-24T07:04:13;98496.97;;;23.99;100.00
53270;BME280;39159;45.634;9.420;2023-07-24T07:06:39;98500.00;;;24.19;100.00
53270;BME280;39159;45.634;9.420;2023-07-24T07:09:04;98516.00;;;24.60;100.00
53270;BME280;39159;45.634;9.420;2023-07-24T07:11:30;98523.28;;;24.92;100.00
53270;BME280;39159;45.634;9.420;2023-07-24T07:13:56;98518.72;;;25.06;100.00
53270;BME280;39159;45.634;9.420;2023-07-24T07:16:21;98516.94;;;25.26;100.00
53270;BME280;39159;45.634;9.420;2023-07-24T07:18:47;98499.06;;;25.51;100.00
53270;BME280;39159;45.634;9.420;2023-07-24T07:21:12;98460.88;;;25.68;98.87
53270;BME280;39159;45.634;9.420;2023-07-24T07:23:38;98437.94;;;26.07;100.00
53270;BME280;39159;45.634;9.420;2023-07-24T07:26:03;98428.13;;;26.19;100.00
53270;BME280;39159;45.634;9.420;2023-07-24T07:28:28;98467.91;;;26.07;99.14
53270;BME280;39159;45.634;9.420;2023-07-24T07:30:54;98649.56;;;25.49;100.00
53270;BME280;39159;45.634;9.420;2023-07-24T07:33:19;98816.16;;;25.28;100.00
53270;BME280;39159;45.634;9.420;2023-07-24T07:35:47;98791.13;;;25.07;100.00
53270;BME280;39159;45.634;9.420;2023-07-24T07:38:12;98600.97;;;24.97;100.00
53270;BME280;39159;45.634;9.420;2023-07-24T07:40:38;98530.13;;;24.39;100.00
53270;BME280;39159;45.634;9.420;2023-07-24T07:43:07;98533.59;;;24.02;100.00
53270;BME280;39159;45.634;9.420;2023-07-24T07:45:32;98497.44;;;23.91;100.00
53270;BME280;39159;45.634;9.420;2023-07-24T07:47:58;98485.16;;;23.74;100.00
53270;BME280;39159;45.634;9.420;2023-07-24T07:50:24;98499.56;;;23.58;100.00
53270;BME280;39159;45.634;9.420;2023-07-24T07:52:50;98525.78;;;23.68;100.00
53270;BME280;39159;45.634;9.420;2023-07-24T07:55:17;98557.63;;;23.70;100.00
53270;BME280;39159;45.634;9.420;2023-07-24T07:57:42;98577.22;;;23.52;100.00
53270;BME280;39159;45.634;9.420;2023-07-24T08:00:08;98584.75;;;23.52;100.00
53270;BME280;39159;45.634;9.420;2023-07-24T08:02:34;98578.41;;;23.51;100.00
53270;BME280;39159;45.634;9.420;2023-07-24T08:05:00;98555.28;;;23.58;100.00
53270;BME280;39159;45.634;9.420;2023-07-24T08:07:25;98518.69;;;23.56;100.00
53270;BME280;39159;45.634;9.420;2023-07-24T08:09:51;98462.09;;;23.77;100.00
53270;BME280;39159;45.634;9.420;2023-07-24T08:12:16;98434.97;;;24.30;100.00
53270;BME280;39159;45.634;9.420;2023-07-24T08:14:42;98436.63;;;24.65;100.00
53270;BME280;39159;45.634;9.420;2023-07-24T08:17:07;98481.81;;;24.91;100.00
53270;BME280;39159;45.634;9.420;2023-07-24T08:19:33;98603.16;;;24.79;100.00
53270;BME280;39159;45.634;9.420;2023-07-24T08:21:58;98775.50;;;24.57;100.00
53270;BME280;39159;45.634;9.420;2023-07-24T08:24:24;98882.38;;;24.25;100.00
53270;BME280;39159;45.634;9.420;2023-07-24T08:26:49;98901.16;;;23.92;100.00
53270;BME280;39159;45.634;9.420;2023-07-24T08:29:15;98843.38;;;23.68;100.00
53270;BME280;39159;45.634;9.420;2023-07-24T08:31:40;98663.56;;;23.52;100.00
53270;BME280;39159;45.634;9.420;2023-07-24T08:34:06;98571.38;;;22.93;100.00
53270;BME280;39159;45.634;9.420;2023-07-24T08:36:31;98553.53;;;22.37;100.00
53270;BME280;39159;45.634;9.420;2023-07-24T08:38:57;98527.25;;;21.84;100.00
53270;BME280;39159;45.634;9.420;2023-07-24T08:41:22;98475.25;;;21.73;100.00
53270;BME280;39159;45.634;9.420;2023-07-24T08:43:48;98487.97;;;21.82;100.00
53270;BME280;39159;45.634;9.420;2023-07-24T08:46:18;98489.56;;;21.90;100.00
53270;BME280;39159;45.634;9.420;2023-07-24T08:48:43;98494.31;;;21.89;100.00
53270;BME280;39159;45.634;9.420;2023-07-24T08:51:11;98518.97;;;22.12;100.00
53270;BME280;39159;45.634;9.420;2023-07-24T08:53:38;98522.53;;;22.20;100.00
53270;BME280;39159;45.634;9.420;2023-07-24T08:56:05;98517.00;;;22.38;100.00
53270;BME280;39159;45.634;9.420;2023-07-24T08:58:31;98499.44;;;22.81;100.00
53270;BME280;39159;45.634;9.420;2023-07-24T09:00:58;98495.03;;;22.97;100.00
53270;BME280;39159;45.634;9.420;2023-07-24T09:03:24;98527.53;;;23.36;100.00
53270;BME280;39159;45.634;9.420;2023-07-24T09:05:50;98534.38;;;23.21;100.00
53270;BME280;39159;45.634;9.420;2023-07-24T09:08:15;98554.28;;;23.09;100.00
53270;BME280;39159;45.634;9.420;2023-07-24T09:10:41;98564.22;;;22.99;100.00
53270;BME280;39159;45.634;9.420;2023-07-24T09:13:07;98523.69;;;22.87;100.00
53270;BME280;39159;45.634;9.420;2023-07-24T09:15:42;98549.94;;;22.79;100.00
53270;BME280;39159;45.634;9.420;2023-07-24T09:18:09;98564.63;;;22.83;100.00
53270;BME280;39159;45.634;9.420;2023-07-24T09:20:42;98594.84;;;22.88;100.00
53270;BME280;39159;45.634;9.420;2023-07-24T09:23:09;98612.72;;;22.91;100.00
53270;BME280;39159;45.634;9.420;2023-07-24T09:25:36;98611.13;;;23.01;100.00
53270;BME280;39159;45.634;9.420;2023-07-24T09:28:15;98583.69;;;22.95;100.00
53270;BME280;39159;45.634;9.420;2023-07-24T09:30:42;98573.41;;;22.46;100.00
53270;BME280;39159;45.634;9.420;2023-07-24T09:33:16;98594.47;;;22.32;100.00
53270;BME280;39159;45.634;9.420;2023-07-24T09:35:42;98578.97;;;22.35;100.00
53270;BME280;39159;45.634;9.420;2023-07-24T09:38:09;98553.16;;;22.42;100.00
53270;BME280;39159;45.634;9.420;2023-07-24T09:40:39;98575.38;;;22.27;100.00
53270;BME280;39159;45.634;9.420;2023-07-24T09:43:25;98604.72;;;22.10;100.00
53270;BME280;39159;45.634;9.420;2023-07-24T09:45:52;98550.31;;;22.13;100.00
53270;BME280;39159;45.634;9.420;2023-07-24T09:48:19;98515.38;;;22.05;100.00
53270;BME280;39159;45.634;9.420;2023-07-24T09:50:47;98505.03;;;21.91;100.00
53270;BME280;39159;45.634;9.420;2023-07-24T09:56:01;98478.03;;;21.77;100.00
53270;BME280;39159;45.634;9.420;2023-07-24T09:58:28;98463.38;;;21.77;100.00
53270;BME280;39159;45.634;9.420;2023-07-24T10:00:55;98469.69;;;21.66;100.00
53270;BME280;39159;45.634;9.420;2023-07-24T10:03:22;98460.53;;;21.59;100.00
53270;BME280;39159;45.634;9.420;2023-07-24T10:05:48;98453.78;;;21.49;100.00
53270;BME280;39159;45.634;9.420;2023-07-24T10:08:15;98456.16;;;21.43;100.00
53270;BME280;39159;45.634;9.420;2023-07-24T10:10:41;98447.03;;;21.43;100.00
53270;BME280;39159;45.634;9.420;2023-07-24T10:13:08;98450.22;;;21.48;100.00
53270;BME280;39159;45.634;9.420;2023-07-24T10:15:36;98460.91;;;21.46;100.00
53270;BME280;39159;45.634;9.420;2023-07-24T10:18:04;98470.47;;;21.67;100.00
53270;BME280;39159;45.634;9.420;2023-07-24T10:20:34;98482.78;;;21.66;100.00
53270;BME280;39159;45.634;9.420;2023-07-24T10:23:03;98472.88;;;21.61;100.00
53270;BME280;39159;45.634;9.420;2023-07-24T10:25:34;98455.03;;;21.66;100.00
53270;BME280;39159;45.634;9.420;2023-07-24T10:28:04;98449.47;;;21.77;100.00
53270;BME280;39159;45.634;9.420;2023-07-24T10:30:36;98435.19;;;21.89;100.00
53270;BME280;39159;45.634;9.420;2023-07-24T10:33:10;98439.56;;;21.97;100.00
53270;BME280;39159;45.634;9.420;2023-07-24T10:35:41;98450.66;;;22.04;100.00
53270;BME280;39159;45.634;9.420;2023-07-24T10:38:07;98444.31;;;22.14;100.00
53270;BME280;39159;45.634;9.420;2023-07-24T10:40:33;98417.34;;;22.22;100.00
53270;BME280;39159;45.634;9.420;2023-07-24T10:43:10;98410.97;;;22.36;100.00
53270;BME280;39159;45.634;9.420;2023-07-24T10:45:46;98410.53;;;22.48;100.00
53270;BME280;39159;45.634;9.420;2023-07-24T10:48:13;98408.91;;;22.58;100.00
53270;BME280;39159;45.634;9.420;2023-07-24T10:50:44;98407.75;;;22.55;100.00
53270;BME280;39159;45.634;9.420;2023-07-24T10:53:10;98399.00;;;22.53;100.00
53270;BME280;39159;45.634;9.420;2023-07-24T10:55:36;98391.09;;;22.45;100.00
53270;BME280;39159;45.634;9.420;2023-07-24T10:58:02;98392.66;;;22.49;100.00
53270;BME280;39159;45.634;9.420;2023-07-24T11:00:27;98387.88;;;22.53;100.00
53270;BME280;39159;45.634;9.420;2023-07-24T11:02:54;98391.41;;;22.65;100.00
53270;BME280;39159;45.634;9.420;2023-07-24T11:05:23;98381.06;;;22.65;100.00
53270;BME280;39159;45.634;9.420;2023-07-24T11:07:49;98368.78;;;22.63;100.00
53270;BME280;39159;45.634;9.420;2023-07-24T11:10:18;98359.28;;;22.49;100.00
53270;BME280;39159;45.634;9.420;2023-07-24T11:12:44;98364.81;;;22.56;100.00
53270;BME280;39159;45.634;9.420;2023-07-24T11:15:11;98369.94;;;22.65;100.00
53270;BME280;39159;45.634;9.420;2023-07-24T11:17:38;98383.44;;;22.77;100.00
53270;BME280;39159;45.634;9.420;2023-07-24T11:20:13;98390.94;;;22.84;100.00
53270;BME280;39159;45.634;9.420;2023-07-24T11:22:40;98396.91;;;22.83;100.00
53270;BME280;39159;45.634;9.420;2023-07-24T11:25:06;98371.00;;;22.96;100.00
53270;BME280;39159;45.634;9.420;2023-07-24T11:27:32;98310.94;;;23.10;100.00
53270;BME280;39159;45.634;9.420;2023-07-24T11:29:58;98315.38;;;23.04;100.00
53270;BME280;39159;45.634;9.420;2023-07-24T11:32:24;98344.81;;;22.90;100.00
53270;BME280;39159;45.634;9.420;2023-07-24T11:34:50;98327.78;;;22.77;100.00
53270;BME280;39159;45.634;9.420;2023-07-24T11:37:17;98302.75;;;22.74;100.00
53270;BME280;39159;45.634;9.420;2023-07-24T11:39:54;98268.25;;;22.68;100.00
53270;BME280;39159;45.634;9.420;2023-07-24T11:42:20;98206.78;;;22.48;100.00
53270;BME280;39159;45.634;9.420;2023-07-24T11:44:45;98145.72;;;22.30;100.00
53270;BME280;39159;45.634;9.420;2023-07-24T11:47:11;98143.81;;;22.12;100.00
53270;BME280;39159;45.634;9.420;2023-07-24T11:49:36;98115.28;;;22.01;100.00
53270;BME280;39159;45.634;9.420;2023-07-24T11:52:06;98052.28;;;21.84;100.00
53270;BME280;39159;45.634;9.420;2023-07-24T11:54:35;97952.41;;;21.66;100.00
53270;BME280;39159;45.634;9.420;2023-07-24T11:57:01;98029.03;;;21.45;100.00
53270;BME280;39159;45.634;9.420;2023-07-24T11:59:26;98269.72;;;21.27;100.00
53270;BME280;39159;45.634;9.420;2023-07-24T12:01:52;98416.03;;;21.33;100.00
53270;BME280;39159;45.634;9.420;2023-07-24T14:13:41;98196.59;;;22.12;100.00
53270;BME280;39159;45.634;9.420;2023-07-24T14:16:07;98192.63;;;22.17;100.00
53270;BME280;39159;45.634;9.420;2023-07-24T14:18:32;98186.28;;;22.09;100.00
53270;BME280;39159;45.634;9.420;2023-07-24T14:20:57;98182.66;;;22.20;100.00
53270;BME280;39159;45.634;9.420;2023-07-24T14:23:24;98179.94;;;22.12;100.00
53270;BME280;39159;45.634;9.420;2023-07-24T14:25:50;98194.22;;;22.07;100.00
53270;BME280;39159;45.634;9.420;2023-07-24T14:28:15;98208.13;;;22.07;100.00
53270;BME280;39159;45.634;9.420;2023-07-24T14:30:40;98198.22;;;22.06;100.00
53270;BME280;39159;45.634;9.420;2023-07-24T14:33:06;98190.63;;;22.18;100.00
53270;BME280;39159;45.634;9.420;2023-07-24T14:35:31;98188.22;;;22.20;100.00
53270;BME280;39159;45.634;9.420;2023-07-24T14:37:57;98182.25;;;22.28;100.00
53270;BME280;39159;45.634;9.420;2023-07-24T14:40:22;98175.88;;;22.35;100.00
53270;BME280;39159;45.634;9.420;2023-07-24T14:42:48;98173.03;;;22.42;100.00
53270;BME280;39159;45.634;9.420;2023-07-24T14:45:13;98173.38;;;22.51;100.00
53270;BME280;39159;45.634;9.420;2023-07-24T14:47:39;98172.16;;;22.56;100.00
53270;BME280;39159;45.634;9.420;2023-07-24T14:50:04;98169.81;;;22.54;100.00
53270;BME280;39159;45.634;9.420;2023-07-24T14:52:30;98171.25;;;22.70;100.00
53270;BME280;39159;45.634;9.420;2023-07-24T14:54:56;98169.91;;;22.92;100.00
53270;BME280;39159;45.634;9.420;2023-07-24T14:57:21;98173.16;;;22.84;100.00